Terminal Aerodrome Forecast
Issued by NWS

Current Version | Previous Version | Text Only | Print | Product List | Glossary On
Versions: 1 2 3 4 5 6 7 8 9 10 11 12 13 14 15 16 17 18
000
FTUS43 KGRB 242336
TAFATW
TAF
KATW 242336Z 2500/2524 03004KT P6SM OVC012
      TEMPO 2505/2507 3SM -DZ BKN008
     FM250700 04006KT 3SM -SNDZ BKN007
     FM250900 04004KT 1SM -SN OVC005
     FM251200 04008G13KT 3/4SM -SN OVC003=

USA.gov is the U.S. government's official web portal to all federal, state and local government web resources and services.